sensor_id;sensor_type;location;lat;lon;timestamp;P1;durP1;ratioP1;P2;durP2;ratioP2
67278;SDS011;54193;53.746;10.058;2023-04-25T00:02:45;15.73;;;5.25;;
67278;SDS011;54193;53.746;10.058;2023-04-25T00:05:31;14.23;;;5.28;;
67278;SDS011;54193;53.746;10.058;2023-04-25T00:08:17;14.27;;;4.40;;
67278;SDS011;54193;53.746;10.058;2023-04-25T00:11:03;17.90;;;4.30;;
67278;SDS011;54193;53.746;10.058;2023-04-25T00:13:49;21.00;;;4.10;;
67278;SDS011;54193;53.746;10.058;2023-04-25T00:16:35;14.20;;;3.50;;
67278;SDS011;54193;53.746;10.058;2023-04-25T00:19:21;14.38;;;3.88;;
67278;SDS011;54193;53.746;10.058;2023-04-25T00:22:07;15.73;;;3.20;;
67278;SDS011;54193;53.746;10.058;2023-04-25T00:24:53;17.52;;;3.67;;
67278;SDS011;54193;53.746;10.058;2023-04-25T00:27:38;11.75;;;3.53;;
67278;SDS011;54193;53.746;10.058;2023-04-25T00:30:24;20.48;;;4.00;;
67278;SDS011;54193;53.746;10.058;2023-04-25T00:33:10;13.65;;;3.30;;
67278;SDS011;54193;53.746;10.058;2023-04-25T00:35:55;14.07;;;3.30;;
67278;SDS011;54193;53.746;10.058;2023-04-25T00:38:41;14.95;;;3.97;;
67278;SDS011;54193;53.746;10.058;2023-04-25T00:41:27;13.88;;;3.63;;
67278;SDS011;54193;53.746;10.058;2023-04-25T00:44:12;18.27;;;3.40;;
67278;SDS011;54193;53.746;10.058;2023-04-25T00:47:02;14.13;;;3.65;;
67278;SDS011;54193;53.746;10.058;2023-04-25T00:49:48;12.35;;;2.88;;
67278;SDS011;54193;53.746;10.058;2023-04-25T00:52:34;14.63;;;2.95;;
67278;SDS011;54193;53.746;10.058;2023-04-25T00:55:20;20.33;;;3.38;;
67278;SDS011;54193;53.746;10.058;2023-04-25T00:58:05;11.70;;;3.22;;
67278;SDS011;54193;53.746;10.058;2023-04-25T01:00:51;14.88;;;3.20;;
67278;SDS011;54193;53.746;10.058;2023-04-25T01:03:38;17.63;;;3.10;;
67278;SDS011;54193;53.746;10.058;2023-04-25T01:06:28;11.20;;;2.95;;
67278;SDS011;54193;53.746;10.058;2023-04-25T01:09:13;13.65;;;2.92;;
67278;SDS011;54193;53.746;10.058;2023-04-25T01:11:59;18.73;;;3.43;;
67278;SDS011;54193;53.746;10.058;2023-04-25T01:14:46;18.67;;;3.30;;
67278;SDS011;54193;53.746;10.058;2023-04-25T01:17:33;21.10;;;3.90;;
67278;SDS011;54193;53.746;10.058;2023-04-25T01:20:20;14.10;;;3.50;;
67278;SDS011;54193;53.746;10.058;2023-04-25T01:23:08;15.77;;;3.17;;
67278;SDS011;54193;53.746;10.058;2023-04-25T01:25:54;10.98;;;2.78;;
67278;SDS011;54193;53.746;10.058;2023-04-25T01:28:40;14.20;;;3.05;;
67278;SDS011;54193;53.746;10.058;2023-04-25T01:31:26;14.37;;;2.70;;
67278;SDS011;54193;53.746;10.058;2023-04-25T01:34:13;16.42;;;3.67;;
67278;SDS011;54193;53.746;10.058;2023-04-25T01:36:59;10.85;;;2.50;;
67278;SDS011;54193;53.746;10.058;2023-04-25T01:39:46;17.23;;;3.57;;
67278;SDS011;54193;53.746;10.058;2023-04-25T01:42:34;12.95;;;2.92;;
67278;SDS011;54193;53.746;10.058;2023-04-25T01:45:21;14.60;;;2.53;;
67278;SDS011;54193;53.746;10.058;2023-04-25T01:48:08;14.70;;;3.03;;
67278;SDS011;54193;53.746;10.058;2023-04-25T01:50:54;20.50;;;2.85;;
67278;SDS011;54193;53.746;10.058;2023-04-25T01:53:39;12.80;;;2.70;;
67278;SDS011;54193;53.746;10.058;2023-04-25T01:56:29;13.70;;;2.88;;
67278;SDS011;54193;53.746;10.058;2023-04-25T01:59:15;13.77;;;2.70;;
67278;SDS011;54193;53.746;10.058;2023-04-25T02:02:01;15.52;;;3.35;;
67278;SDS011;54193;53.746;10.058;2023-04-25T02:04:48;11.15;;;2.55;;
67278;SDS011;54193;53.746;10.058;2023-04-25T02:07:34;16.77;;;3.23;;
67278;SDS011;54193;53.746;10.058;2023-04-25T02:10:20;15.27;;;2.95;;
67278;SDS011;54193;53.746;10.058;2023-04-25T02:13:05;14.85;;;3.08;;
67278;SDS011;54193;53.746;10.058;2023-04-25T02:15:51;12.70;;;2.60;;
67278;SDS011;54193;53.746;10.058;2023-04-25T02:18:37;10.93;;;2.75;;
67278;SDS011;54193;53.746;10.058;2023-04-25T02:21:22;17.55;;;3.10;;
67278;SDS011;54193;53.746;10.058;2023-04-25T02:24:08;13.48;;;2.65;;
67278;SDS011;54193;53.746;10.058;2023-04-25T02:26:54;16.93;;;2.93;;
67278;SDS011;54193;53.746;10.058;2023-04-25T02:29:41;9.65;;;2.45;;
67278;SDS011;54193;53.746;10.058;2023-04-25T02:32:28;13.55;;;3.00;;
67278;SDS011;54193;53.746;10.058;2023-04-25T02:35:13;13.53;;;2.90;;
67278;SDS011;54193;53.746;10.058;2023-04-25T02:37:59;14.07;;;3.60;;
67278;SDS011;54193;53.746;10.058;2023-04-25T02:40:45;16.70;;;3.75;;
67278;SDS011;54193;53.746;10.058;2023-04-25T02:43:30;12.80;;;3.20;;
67278;SDS011;54193;53.746;10.058;2023-04-25T02:46:16;12.95;;;2.22;;
67278;SDS011;54193;53.746;10.058;2023-04-25T02:49:02;15.45;;;2.80;;
67278;SDS011;54193;53.746;10.058;2023-04-25T02:51:47;14.20;;;2.58;;
67278;SDS011;54193;53.746;10.058;2023-04-25T02:54:33;10.93;;;2.37;;
67278;SDS011;54193;53.746;10.058;2023-04-25T02:57:18;11.95;;;2.88;;
67278;SDS011;54193;53.746;10.058;2023-04-25T03:00:04;10.73;;;2.47;;
67278;SDS011;54193;53.746;10.058;2023-04-25T03:02:51;12.07;;;2.33;;
67278;SDS011;54193;53.746;10.058;2023-04-25T03:05:36;9.98;;;2.08;;
67278;SDS011;54193;53.746;10.058;2023-04-25T03:08:22;12.10;;;2.75;;
67278;SDS011;54193;53.746;10.058;2023-04-25T03:11:09;11.60;;;2.30;;
67278;SDS011;54193;53.746;10.058;2023-04-25T03:13:54;11.80;;;2.40;;
67278;SDS011;54193;53.746;10.058;2023-04-25T03:16:40;12.82;;;2.45;;
67278;SDS011;54193;53.746;10.058;2023-04-25T03:19:26;13.82;;;2.97;;
67278;SDS011;54193;53.746;10.058;2023-04-25T03:22:12;14.73;;;2.73;;
67278;SDS011;54193;53.746;10.058;2023-04-25T03:24:57;13.68;;;2.60;;
67278;SDS011;54193;53.746;10.058;2023-04-25T03:27:43;23.30;;;3.70;;
67278;SDS011;54193;53.746;10.058;2023-04-25T03:30:28;12.90;;;2.40;;
67278;SDS011;54193;53.746;10.058;2023-04-25T03:33:14;12.13;;;3.10;;
67278;SDS011;54193;53.746;10.058;2023-04-25T03:36:00;9.13;;;2.20;;
67278;SDS011;54193;53.746;10.058;2023-04-25T03:38:46;17.55;;;3.10;;
67278;SDS011;54193;53.746;10.058;2023-04-25T03:41:33;12.10;;;2.28;;
67278;SDS011;54193;53.746;10.058;2023-04-25T03:44:19;10.10;;;2.50;;
67278;SDS011;54193;53.746;10.058;2023-04-25T03:47:04;12.20;;;2.40;;
67278;SDS011;54193;53.746;10.058;2023-04-25T03:49:50;12.43;;;2.70;;
67278;SDS011;54193;53.746;10.058;2023-04-25T03:52:37;13.02;;;2.25;;
67278;SDS011;54193;53.746;10.058;2023-04-25T03:55:22;12.52;;;2.92;;
67278;SDS011;54193;53.746;10.058;2023-04-25T03:58:08;15.20;;;2.97;;
67278;SDS011;54193;53.746;10.058;2023-04-25T04:00:54;15.05;;;2.97;;
67278;SDS011;54193;53.746;10.058;2023-04-25T04:03:39;10.40;;;2.30;;
67278;SDS011;54193;53.746;10.058;2023-04-25T04:06:25;10.98;;;2.20;;
67278;SDS011;54193;53.746;10.058;2023-04-25T04:09:11;16.00;;;2.50;;
67278;SDS011;54193;53.746;10.058;2023-04-25T04:11:57;14.15;;;2.80;;
67278;SDS011;54193;53.746;10.058;2023-04-25T04:14:43;12.57;;;2.30;;
67278;SDS011;54193;53.746;10.058;2023-04-25T04:17:42;11.88;;;2.15;;
67278;SDS011;54193;53.746;10.058;2023-04-25T04:20:28;15.57;;;2.50;;
67278;SDS011;54193;53.746;10.058;2023-04-25T04:23:15;15.77;;;2.70;;
67278;SDS011;54193;53.746;10.058;2023-04-25T04:26:01;10.27;;;2.00;;
67278;SDS011;54193;53.746;10.058;2023-04-25T04:28:46;8.27;;;2.40;;
67278;SDS011;54193;53.746;10.058;2023-04-25T04:31:32;10.80;;;2.55;;
67278;SDS011;54193;53.746;10.058;2023-04-25T04:34:18;9.57;;;2.17;;
67278;SDS011;54193;53.746;10.058;2023-04-25T04:37:03;9.87;;;2.20;;
67278;SDS011;54193;53.746;10.058;2023-04-25T04:39:49;13.48;;;2.30;;
67278;SDS011;54193;53.746;10.058;2023-04-25T04:42:35;7.10;;;1.50;;
67278;SDS011;54193;53.746;10.058;2023-04-25T04:45:21;8.65;;;1.70;;
67278;SDS011;54193;53.746;10.058;2023-04-25T04:48:07;8.95;;;1.70;;
67278;SDS011;54193;53.746;10.058;2023-04-25T04:50:53;11.77;;;2.22;;
67278;SDS011;54193;53.746;10.058;2023-04-25T04:53:39;10.32;;;1.90;;
67278;SDS011;54193;53.746;10.058;2023-04-25T04:56:25;9.67;;;2.20;;
67278;SDS011;54193;53.746;10.058;2023-04-25T04:59:10;9.10;;;2.30;;
67278;SDS011;54193;53.746;10.058;2023-04-25T05:01:56;9.05;;;1.90;;
67278;SDS011;54193;53.746;10.058;2023-04-25T05:04:41;11.60;;;2.43;;
67278;SDS011;54193;53.746;10.058;2023-04-25T05:07:27;10.48;;;2.17;;
67278;SDS011;54193;53.746;10.058;2023-04-25T05:10:13;12.18;;;2.78;;
67278;SDS011;54193;53.746;10.058;2023-04-25T05:12:58;11.18;;;2.80;;
67278;SDS011;54193;53.746;10.058;2023-04-25T05:15:44;9.20;;;1.83;;
67278;SDS011;54193;53.746;10.058;2023-04-25T05:18:30;10.80;;;1.98;;
67278;SDS011;54193;53.746;10.058;2023-04-25T05:21:15;9.65;;;2.05;;
67278;SDS011;54193;53.746;10.058;2023-04-25T05:24:01;5.13;;;1.33;;
67278;SDS011;54193;53.746;10.058;2023-04-25T05:26:47;8.88;;;1.33;;
67278;SDS011;54193;53.746;10.058;2023-04-25T05:29:33;9.65;;;1.65;;
67278;SDS011;54193;53.746;10.058;2023-04-25T05:32:18;6.80;;;2.00;;
67278;SDS011;54193;53.746;10.058;2023-04-25T05:35:04;10.70;;;2.00;;
67278;SDS011;54193;53.746;10.058;2023-04-25T05:37:52;11.35;;;2.38;;
67278;SDS011;54193;53.746;10.058;2023-04-25T05:40:37;7.65;;;2.00;;
67278;SDS011;54193;53.746;10.058;2023-04-25T05:43:23;11.68;;;2.22;;
67278;SDS011;54193;53.746;10.058;2023-04-25T05:46:08;8.65;;;2.15;;
67278;SDS011;54193;53.746;10.058;2023-04-25T05:48:54;12.55;;;2.17;;
67278;SDS011;54193;53.746;10.058;2023-04-25T05:51:40;12.87;;;2.30;;
67278;SDS011;54193;53.746;10.058;2023-04-25T05:54:26;9.93;;;2.28;;
67278;SDS011;54193;53.746;10.058;2023-04-25T05:57:21;9.52;;;2.22;;
67278;SDS011;54193;53.746;10.058;2023-04-25T06:00:08;16.00;;;2.40;;
67278;SDS011;54193;53.746;10.058;2023-04-25T06:02:54;9.30;;;2.20;;
67278;SDS011;54193;53.746;10.058;2023-04-25T06:05:41;9.07;;;1.98;;
67278;SDS011;54193;53.746;10.058;2023-04-25T06:08:27;6.97;;;1.85;;
67278;SDS011;54193;53.746;10.058;2023-04-25T06:11:13;10.85;;;2.28;;
67278;SDS011;54193;53.746;10.058;2023-04-25T06:14:00;9.55;;;2.40;;
67278;SDS011;54193;53.746;10.058;2023-04-25T06:16:45;7.95;;;2.20;;
67278;SDS011;54193;53.746;10.058;2023-04-25T06:19:35;9.43;;;2.07;;
67278;SDS011;54193;53.746;10.058;2023-04-25T06:22:21;12.48;;;2.15;;
67278;SDS011;54193;53.746;10.058;2023-04-25T06:25:07;9.27;;;1.90;;
67278;SDS011;54193;53.746;10.058;2023-04-25T06:27:52;12.60;;;2.60;;
67278;SDS011;54193;53.746;10.058;2023-04-25T06:30:38;8.02;;;1.80;;
67278;SDS011;54193;53.746;10.058;2023-04-25T06:33:24;8.10;;;2.15;;
67278;SDS011;54193;53.746;10.058;2023-04-25T06:36:10;7.88;;;1.80;;
67278;SDS011;54193;53.746;10.058;2023-04-25T06:38:56;10.63;;;1.58;;
67278;SDS011;54193;53.746;10.058;2023-04-25T06:41:42;10.70;;;2.20;;
67278;SDS011;54193;53.746;10.058;2023-04-25T06:44:27;8.02;;;2.47;;
67278;SDS011;54193;53.746;10.058;2023-04-25T06:47:14;6.43;;;2.03;;
67278;SDS011;54193;53.746;10.058;2023-04-25T06:50:00;11.23;;;3.15;;
67278;SDS011;54193;53.746;10.058;2023-04-25T06:52:46;7.65;;;1.75;;
67278;SDS011;54193;53.746;10.058;2023-04-25T06:55:31;11.87;;;2.30;;
67278;SDS011;54193;53.746;10.058;2023-04-25T06:58:17;8.45;;;1.90;;
67278;SDS011;54193;53.746;10.058;2023-04-25T07:01:03;8.30;;;1.70;;
67278;SDS011;54193;53.746;10.058;2023-04-25T07:03:49;8.25;;;1.65;;
67278;SDS011;54193;53.746;10.058;2023-04-25T07:06:34;9.55;;;2.00;;
67278;SDS011;54193;53.746;10.058;2023-04-25T07:09:23;5.00;;;1.77;;
67278;SDS011;54193;53.746;10.058;2023-04-25T07:12:09;6.68;;;1.70;;
67278;SDS011;54193;53.746;10.058;2023-04-25T07:14:54;6.10;;;1.27;;
67278;SDS011;54193;53.746;10.058;2023-04-25T07:17:40;6.65;;;1.58;;
67278;SDS011;54193;53.746;10.058;2023-04-25T07:20:25;6.82;;;1.58;;
67278;SDS011;54193;53.746;10.058;2023-04-25T07:23:13;7.33;;;1.93;;
67278;SDS011;54193;53.746;10.058;2023-04-25T07:25:58;9.20;;;1.95;;
67278;SDS011;54193;53.746;10.058;2023-04-25T07:28:44;9.63;;;1.90;;
67278;SDS011;54193;53.746;10.058;2023-04-25T07:31:31;7.32;;;2.05;;
67278;SDS011;54193;53.746;10.058;2023-04-25T07:34:16;5.60;;;1.60;;
67278;SDS011;54193;53.746;10.058;2023-04-25T07:37:02;10.45;;;2.90;;
67278;SDS011;54193;53.746;10.058;2023-04-25T07:39:48;7.10;;;1.60;;
67278;SDS011;54193;53.746;10.058;2023-04-25T07:42:33;10.70;;;2.20;;
67278;SDS011;54193;53.746;10.058;2023-04-25T07:45:19;7.30;;;1.80;;
67278;SDS011;54193;53.746;10.058;2023-04-25T07:48:04;6.63;;;1.33;;
67278;SDS011;54193;53.746;10.058;2023-04-25T07:50:51;10.63;;;1.70;;
67278;SDS011;54193;53.746;10.058;2023-04-25T07:53:36;9.43;;;1.90;;
67278;SDS011;54193;53.746;10.058;2023-04-25T07:56:22;12.30;;;1.73;;
67278;SDS011;54193;53.746;10.058;2023-04-25T07:59:08;9.63;;;1.90;;
67278;SDS011;54193;53.746;10.058;2023-04-25T08:01:54;8.55;;;1.40;;
67278;SDS011;54193;53.746;10.058;2023-04-25T08:04:40;8.82;;;1.63;;
67278;SDS011;54193;53.746;10.058;2023-04-25T08:07:26;11.52;;;2.35;;
67278;SDS011;54193;53.746;10.058;2023-04-25T08:10:11;14.13;;;1.73;;
67278;SDS011;54193;53.746;10.058;2023-04-25T08:12:57;9.68;;;1.70;;
67278;SDS011;54193;53.746;10.058;2023-04-25T08:15:43;13.02;;;1.95;;
67278;SDS011;54193;53.746;10.058;2023-04-25T08:18:28;9.93;;;1.77;;
67278;SDS011;54193;53.746;10.058;2023-04-25T08:21:14;3.95;;;1.13;;
67278;SDS011;54193;53.746;10.058;2023-04-25T08:24:00;9.30;;;1.33;;
67278;SDS011;54193;53.746;10.058;2023-04-25T08:26:46;5.90;;;1.23;;
67278;SDS011;54193;53.746;10.058;2023-04-25T08:29:32;6.43;;;1.20;;
67278;SDS011;54193;53.746;10.058;2023-04-25T08:32:18;6.15;;;1.33;;
67278;SDS011;54193;53.746;10.058;2023-04-25T08:35:04;7.63;;;1.60;;
67278;SDS011;54193;53.746;10.058;2023-04-25T08:37:50;8.33;;;1.53;;
67278;SDS011;54193;53.746;10.058;2023-04-25T08:40:37;6.30;;;1.35;;
67278;SDS011;54193;53.746;10.058;2023-04-25T08:43:24;6.22;;;1.23;;
67278;SDS011;54193;53.746;10.058;2023-04-25T08:46:10;6.53;;;1.20;;
67278;SDS011;54193;53.746;10.058;2023-04-25T08:49:00;5.38;;;1.98;;
67278;SDS011;54193;53.746;10.058;2023-04-25T08:51:47;7.43;;;1.50;;
67278;SDS011;54193;53.746;10.058;2023-04-25T08:54:36;5.30;;;1.08;;
67278;SDS011;54193;53.746;10.058;2023-04-25T08:57:22;9.65;;;1.38;;
67278;SDS011;54193;53.746;10.058;2023-04-25T09:00:11;6.95;;;1.25;;
67278;SDS011;54193;53.746;10.058;2023-04-25T09:02:58;6.60;;;1.33;;
67278;SDS011;54193;53.746;10.058;2023-04-25T09:05:44;6.03;;;1.40;;
67278;SDS011;54193;53.746;10.058;2023-04-25T09:08:30;8.02;;;1.48;;
67278;SDS011;54193;53.746;10.058;2023-04-25T09:11:16;5.93;;;1.25;;
67278;SDS011;54193;53.746;10.058;2023-04-25T09:14:20;6.67;;;1.30;;
67278;SDS011;54193;53.746;10.058;2023-04-25T09:17:08;8.32;;;1.40;;
67278;SDS011;54193;53.746;10.058;2023-04-25T09:19:54;7.47;;;1.40;;
67278;SDS011;54193;53.746;10.058;2023-04-25T09:22:39;6.63;;;1.35;;
67278;SDS011;54193;53.746;10.058;2023-04-25T09:25:25;6.35;;;1.58;;
67278;SDS011;54193;53.746;10.058;2023-04-25T09:28:11;7.32;;;1.75;;
67278;SDS011;54193;53.746;10.058;2023-04-25T09:30:56;5.18;;;1.63;;
67278;SDS011;54193;53.746;10.058;2023-04-25T09:33:42;3.20;;;1.10;;
67278;SDS011;54193;53.746;10.058;2023-04-25T09:36:29;4.78;;;1.02;;
67278;SDS011;54193;53.746;10.058;2023-04-25T09:39:15;4.55;;;1.30;;
67278;SDS011;54193;53.746;10.058;2023-04-25T09:42:02;5.33;;;1.20;;
67278;SDS011;54193;53.746;10.058;2023-04-25T09:44:48;4.43;;;0.90;;
67278;SDS011;54193;53.746;10.058;2023-04-25T09:47:36;5.75;;;1.02;;
67278;SDS011;54193;53.746;10.058;2023-04-25T09:50:23;4.10;;;0.98;;
67278;SDS011;54193;53.746;10.058;2023-04-25T09:53:10;7.07;;;1.17;;
67278;SDS011;54193;53.746;10.058;2023-04-25T09:55:55;6.38;;;1.20;;
67278;SDS011;54193;53.746;10.058;2023-04-25T09:58:42;7.47;;;1.67;;
67278;SDS011;54193;53.746;10.058;2023-04-25T10:01:28;4.20;;;1.17;;
67278;SDS011;54193;53.746;10.058;2023-04-25T10:04:13;8.77;;;1.80;;
67278;SDS011;54193;53.746;10.058;2023-04-25T10:07:05;4.93;;;1.38;;
67278;SDS011;54193;53.746;10.058;2023-04-25T10:09:54;7.57;;;1.30;;
67278;SDS011;54193;53.746;10.058;2023-04-25T10:12:45;7.13;;;1.48;;
67278;SDS011;54193;53.746;10.058;2023-04-25T10:15:32;4.75;;;1.13;;
67278;SDS011;54193;53.746;10.058;2023-04-25T10:18:21;4.72;;;1.30;;
67278;SDS011;54193;53.746;10.058;2023-04-25T10:21:07;5.95;;;1.30;;
67278;SDS011;54193;53.746;10.058;2023-04-25T10:23:52;8.15;;;2.20;;
67278;SDS011;54193;53.746;10.058;2023-04-25T10:26:38;5.80;;;1.20;;
67278;SDS011;54193;53.746;10.058;2023-04-25T10:29:24;6.23;;;1.03;;
67278;SDS011;54193;53.746;10.058;2023-04-25T10:32:11;5.82;;;1.33;;
67278;SDS011;54193;53.746;10.058;2023-04-25T10:34:56;7.07;;;1.40;;
67278;SDS011;54193;53.746;10.058;2023-04-25T10:41:03;5.10;;;1.17;;
67278;SDS011;54193;53.746;10.058;2023-04-25T10:43:58;6.00;;;2.00;;
67278;SDS011;54193;53.746;10.058;2023-04-25T10:46:46;6.28;;;1.58;;
67278;SDS011;54193;53.746;10.058;2023-04-25T10:49:32;4.93;;;1.30;;
67278;SDS011;54193;53.746;10.058;2023-04-25T10:52:26;3.90;;;1.05;;
67278;SDS011;54193;53.746;10.058;2023-04-25T10:55:13;4.03;;;0.90;;
67278;SDS011;54193;53.746;10.058;2023-04-25T10:57:59;3.73;;;0.90;;
67278;SDS011;54193;53.746;10.058;2023-04-25T11:00:46;4.57;;;0.82;;
67278;SDS011;54193;53.746;10.058;2023-04-25T11:03:32;3.38;;;1.15;;
67278;SDS011;54193;53.746;10.058;2023-04-25T11:06:22;10.67;;;1.23;;
67278;SDS011;54193;53.746;10.058;2023-04-25T11:09:14;6.53;;;1.10;;
67278;SDS011;54193;53.746;10.058;2023-04-25T11:12:00;4.82;;;1.10;;
67278;SDS011;54193;53.746;10.058;2023-04-25T11:14:46;5.10;;;1.02;;
67278;SDS011;54193;53.746;10.058;2023-04-25T11:17:32;7.32;;;1.10;;
67278;SDS011;54193;53.746;10.058;2023-04-25T11:20:18;4.20;;;0.90;;
67278;SDS011;54193;53.746;10.058;2023-04-25T11:23:04;5.22;;;1.25;;
67278;SDS011;54193;53.746;10.058;2023-04-25T11:25:49;4.70;;;0.90;;
67278;SDS011;54193;53.746;10.058;2023-04-25T11:28:36;9.18;;;1.92;;
67278;SDS011;54193;53.746;10.058;2023-04-25T11:31:21;5.28;;;1.35;;
67278;SDS011;54193;53.746;10.058;2023-04-25T11:34:07;12.63;;;2.13;;
67278;SDS011;54193;53.746;10.058;2023-04-25T11:36:53;7.40;;;1.90;;
67278;SDS011;54193;53.746;10.058;2023-04-25T11:39:42;7.28;;;1.63;;
67278;SDS011;54193;53.746;10.058;2023-04-25T11:42:29;7.03;;;1.40;;
67278;SDS011;54193;53.746;10.058;2023-04-25T11:45:15;7.13;;;1.70;;
67278;SDS011;54193;53.746;10.058;2023-04-25T11:48:01;4.20;;;1.23;;
67278;SDS011;54193;53.746;10.058;2023-04-25T11:50:48;6.10;;;1.40;;
67278;SDS011;54193;53.746;10.058;2023-04-25T11:53:33;3.93;;;0.90;;
67278;SDS011;54193;53.746;10.058;2023-04-25T11:56:19;3.15;;;1.05;;
67278;SDS011;54193;53.746;10.058;2023-04-25T11:59:05;4.38;;;1.20;;
67278;SDS011;54193;53.746;10.058;2023-04-25T12:01:51;3.97;;;1.20;;
67278;SDS011;54193;53.746;10.058;2023-04-25T12:04:37;5.30;;;1.17;;
67278;SDS011;54193;53.746;10.058;2023-04-25T12:07:29;7.28;;;1.30;;
67278;SDS011;54193;53.746;10.058;2023-04-25T12:10:16;3.65;;;1.00;;
67278;SDS011;54193;53.746;10.058;2023-04-25T12:13:17;8.07;;;1.17;;
67278;SDS011;54193;53.746;10.058;2023-04-25T12:16:03;4.35;;;1.00;;
67278;SDS011;54193;53.746;10.058;2023-04-25T12:18:51;4.47;;;1.10;;
67278;SDS011;54193;53.746;10.058;2023-04-25T12:21:37;5.80;;;1.13;;
67278;SDS011;54193;53.746;10.058;2023-04-25T12:24:24;5.70;;;0.90;;
67278;SDS011;54193;53.746;10.058;2023-04-25T12:27:13;8.10;;;1.85;;
67278;SDS011;54193;53.746;10.058;2023-04-25T12:30:01;5.03;;;1.20;;
67278;SDS011;54193;53.746;10.058;2023-04-25T12:32:47;8.27;;;1.23;;
67278;SDS011;54193;53.746;10.058;2023-04-25T12:35:33;8.82;;;1.40;;
67278;SDS011;54193;53.746;10.058;2023-04-25T12:38:25;2.80;;;0.98;;
67278;SDS011;54193;53.746;10.058;2023-04-25T12:41:12;3.30;;;1.00;;
67278;SDS011;54193;53.746;10.058;2023-04-25T12:43:58;4.80;;;1.02;;
67278;SDS011;54193;53.746;10.058;2023-04-25T12:46:43;4.80;;;1.20;;
67278;SDS011;54193;53.746;10.058;2023-04-25T12:49:30;5.30;;;1.20;;
67278;SDS011;54193;53.746;10.058;2023-04-25T12:52:16;6.25;;;1.60;;
67278;SDS011;54193;53.746;10.058;2023-04-25T12:55:01;4.22;;;1.23;;
67278;SDS011;54193;53.746;10.058;2023-04-25T12:57:47;6.47;;;1.00;;
67278;SDS011;54193;53.746;10.058;2023-04-25T13:00:33;4.57;;;0.90;;
67278;SDS011;54193;53.746;10.058;2023-04-25T13:03:19;4.15;;;1.00;;
67278;SDS011;54193;53.746;10.058;2023-04-25T13:06:04;3.22;;;0.80;;
67278;SDS011;54193;53.746;10.058;2023-04-25T13:08:50;6.28;;;1.05;;
67278;SDS011;54193;53.746;10.058;2023-04-25T13:11:36;3.78;;;1.10;;
67278;SDS011;54193;53.746;10.058;2023-04-25T13:14:22;6.85;;;1.88;;
67278;SDS011;54193;53.746;10.058;2023-04-25T13:17:07;6.03;;;1.37;;
67278;SDS011;54193;53.746;10.058;2023-04-25T13:19:53;6.22;;;1.35;;
67278;SDS011;54193;53.746;10.058;2023-04-25T13:22:39;6.32;;;1.50;;
67278;SDS011;54193;53.746;10.058;2023-04-25T13:25:25;3.50;;;1.07;;
67278;SDS011;54193;53.746;10.058;2023-04-25T13:28:11;7.03;;;1.10;;
67278;SDS011;54193;53.746;10.058;2023-04-25T13:30:56;6.07;;;1.10;;
67278;SDS011;54193;53.746;10.058;2023-04-25T13:33:43;7.30;;;1.38;;
67278;SDS011;54193;53.746;10.058;2023-04-25T13:36:28;6.32;;;1.25;;
67278;SDS011;54193;53.746;10.058;2023-04-25T13:39:17;5.25;;;1.15;;
67278;SDS011;54193;53.746;10.058;2023-04-25T13:42:03;7.22;;;1.63;;
67278;SDS011;54193;53.746;10.058;2023-04-25T13:44:48;8.77;;;1.50;;
67278;SDS011;54193;53.746;10.058;2023-04-25T13:47:34;8.43;;;1.75;;
67278;SDS011;54193;53.746;10.058;2023-04-25T13:50:20;6.30;;;1.40;;
67278;SDS011;54193;53.746;10.058;2023-04-25T13:53:06;6.93;;;1.80;;
67278;SDS011;54193;53.746;10.058;2023-04-25T13:55:52;7.38;;;1.60;;
67278;SDS011;54193;53.746;10.058;2023-04-25T13:58:38;7.28;;;2.17;;
67278;SDS011;54193;53.746;10.058;2023-04-25T14:01:25;9.35;;;1.77;;
67278;SDS011;54193;53.746;10.058;2023-04-25T14:04:11;6.82;;;1.45;;
67278;SDS011;54193;53.746;10.058;2023-04-25T14:06:57;5.32;;;0.90;;
67278;SDS011;54193;53.746;10.058;2023-04-25T14:09:42;5.43;;;1.02;;
67278;SDS011;54193;53.746;10.058;2023-04-25T14:12:28;3.40;;;0.90;;
67278;SDS011;54193;53.746;10.058;2023-04-25T14:15:14;6.32;;;1.23;;
67278;SDS011;54193;53.746;10.058;2023-04-25T14:18:00;7.22;;;1.23;;
67278;SDS011;54193;53.746;10.058;2023-04-25T14:20:46;6.70;;;1.47;;
67278;SDS011;54193;53.746;10.058;2023-04-25T14:23:33;5.40;;;1.30;;
67278;SDS011;54193;53.746;10.058;2023-04-25T14:26:18;5.38;;;0.93;;
67278;SDS011;54193;53.746;10.058;2023-04-25T14:29:05;6.72;;;1.00;;
67278;SDS011;54193;53.746;10.058;2023-04-25T14:31:51;8.68;;;2.08;;
67278;SDS011;54193;53.746;10.058;2023-04-25T14:34:38;4.07;;;1.23;;
67278;SDS011;54193;53.746;10.058;2023-04-25T14:37:25;7.07;;;1.52;;
67278;SDS011;54193;53.746;10.058;2023-04-25T14:40:11;7.70;;;1.40;;
67278;SDS011;54193;53.746;10.058;2023-04-25T14:42:58;7.20;;;1.42;;
67278;SDS011;54193;53.746;10.058;2023-04-25T14:45:44;9.70;;;1.65;;
67278;SDS011;54193;53.746;10.058;2023-04-25T14:48:30;7.17;;;1.30;;
67278;SDS011;54193;53.746;10.058;2023-04-25T14:51:16;4.47;;;1.23;;
67278;SDS011;54193;53.746;10.058;2023-04-25T14:54:01;5.47;;;1.20;;
67278;SDS011;54193;53.746;10.058;2023-04-25T14:56:47;7.55;;;1.00;;
67278;SDS011;54193;53.746;10.058;2023-04-25T14:59:33;5.15;;;0.85;;
67278;SDS011;54193;53.746;10.058;2023-04-25T15:02:18;6.13;;;1.17;;
67278;SDS011;54193;53.746;10.058;2023-04-25T15:05:04;6.80;;;1.48;;
67278;SDS011;54193;53.746;10.058;2023-04-25T15:07:50;7.00;;;1.23;;
67278;SDS011;54193;53.746;10.058;2023-04-25T15:10:36;6.00;;;1.60;;
67278;SDS011;54193;53.746;10.058;2023-04-25T15:13:22;4.75;;;1.30;;
67278;SDS011;54193;53.746;10.058;2023-04-25T15:16:07;6.03;;;1.13;;
67278;SDS011;54193;53.746;10.058;2023-04-25T15:18:53;6.50;;;1.98;;
67278;SDS011;54193;53.746;10.058;2023-04-25T15:21:39;6.20;;;1.08;;
67278;SDS011;54193;53.746;10.058;2023-04-25T15:24:24;6.85;;;1.20;;
67278;SDS011;54193;53.746;10.058;2023-04-25T15:27:10;6.93;;;1.92;;
67278;SDS011;54193;53.746;10.058;2023-04-25T15:29:56;6.18;;;1.30;;
67278;SDS011;54193;53.746;10.058;2023-04-25T15:32:42;7.00;;;1.67;;
67278;SDS011;54193;53.746;10.058;2023-04-25T15:35:28;6.07;;;1.23;;
67278;SDS011;54193;53.746;10.058;2023-04-25T15:38:14;5.90;;;1.42;;
67278;SDS011;54193;53.746;10.058;2023-04-25T15:41:00;4.78;;;1.08;;
67278;SDS011;54193;53.746;10.058;2023-04-25T15:43:47;4.23;;;1.00;;
67278;SDS011;54193;53.746;10.058;2023-04-25T15:46:33;4.93;;;1.00;;
67278;SDS011;54193;53.746;10.058;2023-04-25T15:49:18;4.90;;;1.35;;
67278;SDS011;54193;53.746;10.058;2023-04-25T15:52:05;4.32;;;0.95;;
67278;SDS011;54193;53.746;10.058;2023-04-25T15:54:52;5.32;;;1.30;;
67278;SDS011;54193;53.746;10.058;2023-04-25T15:57:38;6.43;;;1.48;;
67278;SDS011;54193;53.746;10.058;2023-04-25T16:00:25;6.63;;;0.98;;
67278;SDS011;54193;53.746;10.058;2023-04-25T16:03:11;4.53;;;1.13;;
67278;SDS011;54193;53.746;10.058;2023-04-25T16:05:57;7.03;;;1.77;;
67278;SDS011;54193;53.746;10.058;2023-04-25T16:08:43;5.15;;;0.95;;
67278;SDS011;54193;53.746;10.058;2023-04-25T16:11:28;4.20;;;1.10;;
67278;SDS011;54193;53.746;10.058;2023-04-25T16:14:14;5.00;;;1.33;;
67278;SDS011;54193;53.746;10.058;2023-04-25T16:17:00;4.80;;;0.80;;
67278;SDS011;54193;53.746;10.058;2023-04-25T16:19:46;10.35;;;1.35;;
67278;SDS011;54193;53.746;10.058;2023-04-25T16:22:31;7.10;;;1.30;;
67278;SDS011;54193;53.746;10.058;2023-04-25T16:25:17;5.28;;;1.23;;
67278;SDS011;54193;53.746;10.058;2023-04-25T16:28:03;6.90;;;1.10;;